Time;durP1;ratioP1;P1;durP2;ratioP2;P2;SDS_P1;SDS_P2;PMS_P1;PMS_P2;Temp;Humidity;BMP_temperature;BMP_pressure;BME280_temperature;BME280_humidity;BME280_pressure;Samples;Min_cycle;Max_cycle;Signal;HPM_P1;HPM_P2
2022/04/07 00:02:23;;;;;;;;;;;9.30;99.90;;;;;;5042978;28;20116;-70
2022/04/07 00:04:51;;;;;;;;;;;9.30;99.90;;;;;;5046184;28;19921;-71
2022/04/07 00:07:18;;;;;;;;;;;9.30;99.90;;;;;;5046027;28;19925;-71
2022/04/07 00:09:44;;;;;;;;;;;9.30;99.90;;;;;;5045952;28;20121;-71
2022/04/07 00:12:11;;;;;;;;;;;9.30;99.90;;;;;;5046232;28;20213;-71
2022/04/07 00:14:38;;;;;;;;;;;9.30;99.90;;;;;;5046430;28;19921;-71
2022/04/07 00:17:05;;;;;;;;;;;9.30;99.90;;;;;;5046091;28;19921;-71
2022/04/07 00:19:31;;;;;;;;;;;9.30;99.90;;;;;;5045799;28;19997;-71
2022/04/07 00:21:59;;;;;;;;;;;9.30;99.90;;;;;;5045992;28;19928;-71
2022/04/07 00:24:26;;;;;;;;;;;9.30;99.90;;;;;;5045902;28;19943;-70
2022/04/07 00:26:52;;;;;;;;;;;9.30;99.90;;;;;;5045758;28;19928;-71
2022/04/07 00:29:19;;;;;;;;;;;9.30;99.90;;;;;;5045747;28;19964;-71
2022/04/07 00:31:46;;;;;;;;;;;9.30;99.90;;;;;;5045732;28;19929;-71
2022/04/07 00:34:12;;;;;;;;;;;9.20;99.90;;;;;;5045330;28;19995;-71
2022/04/07 00:36:39;;;;;;;;;;;9.20;99.90;;;;;;5045690;28;20118;-70
2022/04/07 00:39:07;;;;;;;;;;;9.10;99.90;;;;;;5045911;28;19921;-71
2022/04/07 00:41:37;;;;;;;;;;;9.10;99.90;;;;;;5045895;28;19921;-70
2022/04/07 00:44:05;;;;;;;;;;;9.10;99.90;;;;;;5045643;28;19921;-71
2022/04/07 00:46:32;;;;;;;;;;;9.20;99.90;;;;;;5045464;28;19964;-71
2022/04/07 00:48:58;;;;;;;;;;;9.20;99.90;;;;;;5045378;28;20204;-71
2022/04/07 00:51:25;;;;;;;;;;;9.20;99.90;;;;;;5045498;28;20205;-71
2022/04/07 00:53:51;;;;;;;;;;;9.20;99.90;;;;;;5045652;28;19921;-70
2022/04/07 00:56:19;;;;;;;;;;;9.20;99.90;;;;;;5025500;28;19928;-71
2022/04/07 00:58:47;;;;;;;;;;;9.20;99.90;;;;;;5041493;28;19921;-70
2022/04/07 01:01:14;;;;;;;;;;;9.30;99.90;;;;;;5045644;28;19960;-71
2022/04/07 01:03:42;;;;;;;;;;;9.30;99.90;;;;;;5045537;28;19997;-71
2022/04/07 01:06:08;;;;;;;;;;;9.30;99.90;;;;;;5044640;28;19992;-70
2022/04/07 01:08:35;;;;;;;;;;;9.30;99.90;;;;;;5045089;28;19925;-70
2022/04/07 01:11:02;;;;;;;;;;;9.30;99.90;;;;;;5045243;28;19921;-70
2022/04/07 01:13:43;;;;;;;;;;;9.30;99.90;;;;;;5044936;28;19927;-71
2022/04/07 01:16:10;;;;;;;;;;;9.30;99.90;;;;;;5044837;28;19928;-70
2022/04/07 01:18:36;;;;;;;;;;;9.30;99.90;;;;;;5044722;28;19921;-71
2022/04/07 01:21:03;;;;;;;;;;;9.30;99.90;;;;;;5044958;28;19928;-70
2022/04/07 01:23:32;;;;;;;;;;;9.30;99.90;;;;;;5123410;23;19982;-71
2022/04/07 01:26:01;;;;;;;;;;;9.30;99.90;;;;;;5125621;28;19920;-71
2022/04/07 01:28:27;;;;;;;;;;;9.30;99.90;;;;;;5125411;28;19919;-71
2022/04/07 01:30:54;;;;;;;;;;;9.30;99.90;;;;;;5125420;28;19926;-71
2022/04/07 01:33:21;;;;;;;;;;;9.30;99.90;;;;;;5125799;28;19926;-70
2022/04/07 01:35:47;;;;;;;;;;;9.30;99.90;;;;;;5125512;28;19927;-71
2022/04/07 01:38:14;;;;;;;;;;;9.30;99.90;;;;;;5125333;28;20114;-71
2022/04/07 01:40:41;;;;;;;;;;;9.30;99.90;;;;;;5125494;28;20149;-71
2022/04/07 01:43:10;;;;;;;;;;;9.20;99.90;;;;;;5125080;28;19923;-71
2022/04/07 01:45:36;;;;;;;;;;;9.20;99.90;;;;;;5124851;28;20207;-71
2022/04/07 01:48:03;;;;;;;;;;;9.20;99.90;;;;;;5125282;28;19927;-71
2022/04/07 01:50:30;;;;;;;;;;;9.20;99.90;;;;;;5125368;28;20115;-71
2022/04/07 01:52:57;;;;;;;;;;;9.10;99.90;;;;;;5125047;28;19927;-71
2022/04/07 01:55:24;;;;;;;;;;;9.10;99.90;;;;;;5124764;28;19965;-70
2022/04/07 01:57:51;;;;;;;;;;;9.10;99.90;;;;;;5124833;28;20211;-71
2022/04/07 02:00:19;;;;;;;;;;;9.10;99.90;;;;;;5124863;28;19950;-71
2022/04/07 02:02:46;;;;;;;;;;;9.10;99.90;;;;;;5125100;28;19920;-70
2022/04/07 02:05:13;;;;;;;;;;;9.10;99.90;;;;;;5124638;28;19919;-70
2022/04/07 02:07:40;;;;;;;;;;;9.10;99.90;;;;;;5124758;28;19920;-71
2022/04/07 02:10:08;;;;;;;;;;;9.10;99.90;;;;;;5124539;28;19926;-71
2022/04/07 02:12:37;;;;;;;;;;;9.00;99.90;;;;;;5124640;28;19924;-71
2022/04/07 02:15:04;;;;;;;;;;;9.00;99.90;;;;;;5124499;28;20226;-71
2022/04/07 02:17:32;;;;;;;;;;;9.00;99.90;;;;;;5124404;28;19919;-71
2022/04/07 02:19:59;;;;;;;;;;;9.00;99.90;;;;;;5124799;28;19920;-71
2022/04/07 02:22:28;;;;;;;;;;;8.90;99.90;;;;;;5124046;28;19921;-71
2022/04/07 02:24:55;;;;;;;;;;;8.90;99.90;;;;;;5124330;28;19926;-71
2022/04/07 02:27:22;;;;;;;;;;;8.90;99.90;;;;;;5123283;28;20123;-71
2022/04/07 02:29:49;;;;;;;;;;;8.80;99.90;;;;;;5124694;28;19964;-70
2022/04/07 02:32:15;;;;;;;;;;;8.80;99.90;;;;;;5124486;28;19926;-71
2022/04/07 02:34:44;;;;;;;;;;;8.80;99.90;;;;;;5124154;28;19926;-71
2022/04/07 02:37:10;;;;;;;;;;;8.80;99.90;;;;;;5123845;28;20098;-71
2022/04/07 02:39:37;;;;;;;;;;;8.80;99.90;;;;;;5124647;28;19919;-71
2022/04/07 02:42:04;;;;;;;;;;;8.70;99.90;;;;;;5124157;28;19935;-70
2022/04/07 02:44:31;;;;;;;;;;;8.70;99.90;;;;;;5124289;28;20209;-71
2022/04/07 02:46:57;;;;;;;;;;;8.70;99.90;;;;;;5124020;28;20114;-71
2022/04/07 02:49:24;;;;;;;;;;;8.60;99.90;;;;;;5123928;28;20218;-71
2022/04/07 02:51:52;;;;;;;;;;;8.70;99.90;;;;;;5124171;28;20152;-70
2022/04/07 02:54:19;;;;;;;;;;;8.60;99.90;;;;;;5123959;28;19926;-71
2022/04/07 02:56:46;;;;;;;;;;;8.60;99.90;;;;;;5124136;28;19919;-71
2022/04/07 02:59:13;;;;;;;;;;;8.60;99.90;;;;;;5124218;28;19920;-71
2022/04/07 03:01:39;;;;;;;;;;;8.60;99.90;;;;;;5124395;28;19926;-71
2022/04/07 03:04:06;;;;;;;;;;;8.60;99.90;;;;;;5124838;28;19982;-70
2022/04/07 03:06:32;;;;;;;;;;;8.60;99.90;;;;;;5122910;28;19923;-71
2022/04/07 03:09:00;;;;;;;;;;;8.50;99.90;;;;;;5123808;28;19927;-71
2022/04/07 03:11:27;;;;;;;;;;;8.50;99.90;;;;;;5123575;28;19920;-71
2022/04/07 03:13:54;;;;;;;;;;;8.60;99.90;;;;;;5123563;28;19920;-71
2022/04/07 03:16:21;;;;;;;;;;;8.60;99.90;;;;;;5123769;28;19926;-71
2022/04/07 03:18:47;;;;;;;;;;;8.60;99.90;;;;;;5123845;28;19920;-71
2022/04/07 03:21:14;;;;;;;;;;;8.60;99.90;;;;;;5124256;28;19919;-70
2022/04/07 03:23:40;;;;;;;;;;;8.60;99.90;;;;;;5123267;28;19920;-70
2022/04/07 03:26:08;;;;;;;;;;;8.60;99.90;;;;;;5123400;28;19927;-70
2022/04/07 03:28:35;;;;;;;;;;;8.50;99.90;;;;;;5123717;28;19934;-71
2022/04/07 03:31:01;;;;;;;;;;;8.50;99.90;;;;;;5123924;28;19919;-71
2022/04/07 03:33:28;;;;;;;;;;;8.50;99.90;;;;;;5123417;28;20209;-71
2022/04/07 03:35:55;;;;;;;;;;;8.50;99.90;;;;;;5123094;28;20006;-70
2022/04/07 03:38:22;;;;;;;;;;;8.50;99.90;;;;;;5126711;28;19919;-71
2022/04/07 03:40:48;;;;;;;;;;;8.60;99.90;;;;;;5127827;28;19920;-71
2022/04/07 03:43:16;;;;;;;;;;;8.60;99.90;;;;;;5127539;28;20203;-71
2022/04/07 03:45:43;;;;;;;;;;;8.60;99.90;;;;;;5127373;28;20119;-70
2022/04/07 03:48:10;;;;;;;;;;;8.50;99.90;;;;;;5127714;28;19986;-70
2022/04/07 03:50:37;;;;;;;;;;;8.50;99.90;;;;;;5127501;28;19919;-71
2022/04/07 03:53:03;;;;;;;;;;;8.50;99.90;;;;;;5127329;28;20208;-70
2022/04/07 03:55:30;;;;;;;;;;;8.50;99.90;;;;;;5126959;28;20123;-70
2022/04/07 03:57:57;;;;;;;;;;;8.40;99.90;;;;;;5127708;28;19965;-71
2022/04/07 04:00:25;;;;;;;;;;;8.40;99.90;;;;;;5127413;28;19957;-70
2022/04/07 04:02:52;;;;;;;;;;;8.40;99.90;;;;;;5127276;28;19947;-71
2022/04/07 04:05:19;;;;;;;;;;;8.40;99.90;;;;;;5127046;28;19927;-70
2022/04/07 04:07:46;;;;;;;;;;;8.40;99.90;;;;;;5127277;28;19986;-70
2022/04/07 04:10:12;;;;;;;;;;;8.40;99.90;;;;;;5127560;28;19920;-70
2022/04/07 04:12:39;;;;;;;;;;;8.40;99.90;;;;;;5127057;28;19990;-70
2022/04/07 04:15:06;;;;;;;;;;;8.40;99.90;;;;;;5125892;28;19919;-70
2022/04/07 04:17:34;;;;;;;;;;;8.40;99.90;;;;;;5126818;28;19920;-70
2022/04/07 04:20:01;;;;;;;;;;;8.40;99.90;;;;;;5126742;28;19919;-70
2022/04/07 04:22:27;;;;;;;;;;;8.40;99.90;;;;;;5126694;28;20217;-70
2022/04/07 04:24:54;;;;;;;;;;;8.40;99.90;;;;;;5126923;28;20229;-70
2022/04/07 04:27:20;;;;;;;;;;;8.40;99.90;;;;;;5126612;28;19926;-71
2022/04/07 04:29:47;;;;;;;;;;;8.40;99.90;;;;;;5126809;28;19926;-71
2022/04/07 04:32:13;;;;;;;;;;;8.40;99.90;;;;;;5126515;28;19926;-71
2022/04/07 04:34:41;;;;;;;;;;;8.40;99.90;;;;;;5126789;28;20203;-71
2022/04/07 04:37:08;;;;;;;;;;;8.40;99.90;;;;;;5126370;28;20137;-70
2022/04/07 04:39:34;;;;;;;;;;;8.40;99.90;;;;;;5126779;28;19927;-71
2022/04/07 04:42:01;;;;;;;;;;;8.40;99.90;;;;;;5126728;28;19919;-71
2022/04/07 04:44:28;;;;;;;;;;;8.40;99.90;;;;;;5126281;28;19920;-71
2022/04/07 04:46:54;;;;;;;;;;;8.40;99.90;;;;;;5126155;28;19983;-70
2022/04/07 04:49:21;;;;;;;;;;;8.40;99.90;;;;;;5125896;28;19926;-70
2022/04/07 04:51:49;;;;;;;;;;;8.30;99.90;;;;;;5126354;28;19920;-71
2022/04/07 04:54:16;;;;;;;;;;;8.30;99.90;;;;;;5126376;28;19927;-71
2022/04/07 04:56:42;;;;;;;;;;;8.30;99.90;;;;;;5126089;28;19926;-71
2022/04/07 04:59:09;;;;;;;;;;;8.30;99.90;;;;;;5125904;28;19927;-70
2022/04/07 05:01:35;;;;;;;;;;;8.30;99.90;;;;;;5126303;28;19920;-71
2022/04/07 05:04:02;;;;;;;;;;;8.30;99.90;;;;;;5126374;28;19933;-71
2022/04/07 05:06:29;;;;;;;;;;;8.30;99.90;;;;;;5125859;28;19926;-71
2022/04/07 05:08:56;;;;;;;;;;;8.30;99.90;;;;;;5125820;28;19919;-70
2022/04/07 05:11:23;;;;;;;;;;;8.30;99.90;;;;;;5126620;28;19927;-72
2022/04/07 05:13:52;;;;;;;;;;;8.30;99.90;;;;;;5125243;28;19930;-70
2022/04/07 05:16:18;;;;;;;;;;;8.30;99.90;;;;;;5126167;28;19994;-70
2022/04/07 05:18:47;;;;;;;;;;;8.30;99.90;;;;;;5126293;28;20114;-70
2022/04/07 05:21:14;;;;;;;;;;;8.30;99.90;;;;;;5126157;28;19920;-70
2022/04/07 05:23:40;;;;;;;;;;;8.40;99.90;;;;;;5125498;28;20211;-70
2022/04/07 05:26:08;;;;;;;;;;;8.40;99.90;;;;;;5125457;28;19919;-71
2022/04/07 05:28:35;;;;;;;;;;;8.40;99.90;;;;;;5125647;28;19920;-70
2022/04/07 05:31:01;;;;;;;;;;;8.40;99.90;;;;;;5125735;28;19926;-70
2022/04/07 05:33:28;;;;;;;;;;;8.40;99.90;;;;;;5125378;28;20199;-70
2022/04/07 05:35:55;;;;;;;;;;;8.40;99.90;;;;;;5125169;28;20203;-71
2022/04/07 05:38:22;;;;;;;;;;;8.50;99.90;;;;;;5125967;28;19920;-71
2022/04/07 05:40:48;;;;;;;;;;;8.50;99.90;;;;;;5125846;28;19931;-70
2022/04/07 05:43:16;;;;;;;;;;;8.50;99.90;;;;;;5125295;28;19928;-69
2022/04/07 05:45:45;;;;;;;;;;;8.50;99.90;;;;;;5125568;28;19926;-69
2022/04/07 05:48:12;;;;;;;;;;;8.60;99.90;;;;;;5125535;28;19920;-69
2022/04/07 05:50:38;;;;;;;;;;;8.50;99.90;;;;;;5125418;28;19920;-69
2022/04/07 05:53:06;;;;;;;;;;;8.50;99.90;;;;;;5125065;28;19919;-68
2022/04/07 05:55:33;;;;;;;;;;;8.60;99.90;;;;;;5124644;28;19958;-70
2022/04/07 05:58:01;;;;;;;;;;;8.60;99.90;;;;;;5125028;28;19927;-71
2022/04/07 06:00:29;;;;;;;;;;;8.60;99.90;;;;;;5124894;28;19919;-69
2022/04/07 06:02:56;;;;;;;;;;;8.70;99.90;;;;;;5124622;28;19926;-70
2022/04/07 06:05:22;;;;;;;;;;;8.70;99.90;;;;;;5124386;28;20215;-69
2022/04/07 06:07:49;;;;;;;;;;;8.80;99.90;;;;;;5124858;28;20207;-69
2022/04/07 06:10:16;;;;;;;;;;;8.80;99.90;;;;;;5124704;28;20115;-70
2022/04/07 06:12:43;;;;;;;;;;;8.80;99.90;;;;;;5124910;28;19919;-69
2022/04/07 06:15:10;;;;;;;;;;;8.80;99.90;;;;;;5123705;28;19919;-70
2022/04/07 06:17:39;;;;;;;;;;;8.90;99.90;;;;;;5124324;28;19926;-70
2022/04/07 06:20:07;;;;;;;;;;;8.90;99.90;;;;;;5124799;28;19987;-70
2022/04/07 06:22:34;;;;;;;;;;;9.00;99.90;;;;;;5124537;28;19947;-69
2022/04/07 06:25:00;;;;;;;;;;;9.10;99.90;;;;;;5124713;28;19919;-69
2022/04/07 06:27:33;;;;;;;;;;;9.20;99.90;;;;;;5124328;28;20203;-69
2022/04/07 06:29:59;;;;;;;;;;;9.20;99.90;;;;;;5123623;28;19920;-69
2022/04/07 06:32:26;;;;;;;;;;;9.20;99.90;;;;;;5122592;28;19928;-70
2022/04/07 06:34:54;;;;;;;;;;;9.30;99.90;;;;;;5122569;28;19927;-70
2022/04/07 06:37:21;;;;;;;;;;;9.30;99.90;;;;;;5123230;28;19919;-70
2022/04/07 06:39:47;;;;;;;;;;;9.40;99.90;;;;;;5123823;28;19957;-71
2022/04/07 06:42:14;;;;;;;;;;;9.40;99.90;;;;;;5124207;28;19926;-70
2022/04/07 06:44:40;;;;;;;;;;;9.40;99.90;;;;;;5123840;28;20171;-70
2022/04/07 06:47:07;;;;;;;;;;;9.50;99.90;;;;;;5123608;28;19942;-70
2022/04/07 06:49:34;;;;;;;;;;;9.50;99.90;;;;;;5123676;28;19920;-70
2022/04/07 06:52:01;;;;;;;;;;;9.60;99.90;;;;;;5123803;28;19927;-70
2022/04/07 06:54:28;;;;;;;;;;;9.70;99.90;;;;;;5124085;28;19958;-71
2022/04/07 06:56:55;;;;;;;;;;;9.80;99.90;;;;;;5123137;28;20235;-71
2022/04/07 06:59:21;;;;;;;;;;;9.90;99.90;;;;;;5123593;28;20215;-71
2022/04/07 07:01:48;;;;;;;;;;;9.90;99.90;;;;;;5123969;28;20232;-71
2022/04/07 07:04:14;;;;;;;;;;;10.00;99.90;;;;;;5123899;28;20131;-71
2022/04/07 07:06:41;;;;;;;;;;;10.10;99.90;;;;;;5123713;28;20199;-71
2022/04/07 07:09:10;;;;;;;;;;;10.10;99.90;;;;;;5124052;28;19920;-71
2022/04/07 07:11:36;;;;;;;;;;;10.10;99.90;;;;;;5123494;28;19920;-71
2022/04/07 07:14:04;;;;;;;;;;;10.20;99.90;;;;;;5123050;28;19927;-70
2022/04/07 07:16:30;;;;;;;;;;;10.20;99.90;;;;;;5123437;28;19926;-71
2022/04/07 07:18:57;;;;;;;;;;;10.30;99.90;;;;;;5123872;28;19924;-70
2022/04/07 07:21:23;;;;;;;;;;;10.30;99.90;;;;;;5123521;28;19926;-71
2022/04/07 07:23:50;;;;;;;;;;;10.30;99.90;;;;;;5116332;28;19931;-71
2022/04/07 07:26:18;;;;;;;;;;;10.30;99.90;;;;;;5120613;28;19927;-72
2022/04/07 07:28:44;;;;;;;;;;;10.40;99.90;;;;;;5121255;28;20234;-71
2022/04/07 07:31:11;;;;;;;;;;;10.40;99.90;;;;;;5120632;28;20199;-71
2022/04/07 07:33:37;;;;;;;;;;;10.50;99.90;;;;;;5119458;28;20223;-71
2022/04/07 07:36:04;;;;;;;;;;;10.60;99.90;;;;;;5120337;28;19942;-71
2022/04/07 07:38:31;;;;;;;;;;;10.70;99.90;;;;;;5118241;28;20298;-72
2022/04/07 07:40:57;;;;;;;;;;;10.70;99.90;;;;;;5120398;28;20070;-71
2022/04/07 07:43:25;;;;;;;;;;;10.80;99.90;;;;;;5120492;28;19927;-71
2022/04/07 07:45:52;;;;;;;;;;;10.80;99.90;;;;;;5120330;28;19934;-71
2022/04/07 07:48:23;;;;;;;;;;;10.80;99.90;;;;;;5120731;28;19932;-71
2022/04/07 07:50:50;;;;;;;;;;;10.80;99.90;;;;;;5120693;28;20207;-71
2022/04/07 07:53:17;;;;;;;;;;;10.80;99.90;;;;;;5120376;28;20123;-71
2022/04/07 07:55:43;;;;;;;;;;;10.80;99.90;;;;;;5119911;28;19919;-72
2022/04/07 07:58:10;;;;;;;;;;;10.80;99.90;;;;;;5120022;28;19934;-71
2022/04/07 08:00:38;;;;;;;;;;;10.80;99.90;;;;;;5120504;28;20100;-71
2022/04/07 08:03:05;;;;;;;;;;;10.80;99.90;;;;;;5120407;28;19931;-72
2022/04/07 08:05:31;;;;;;;;;;;10.80;99.90;;;;;;5120273;28;20240;-70
2022/04/07 08:07:58;;;;;;;;;;;10.80;99.90;;;;;;5120764;28;19919;-71
2022/04/07 08:10:25;;;;;;;;;;;10.90;99.90;;;;;;5120032;28;19920;-71
2022/04/07 08:12:52;;;;;;;;;;;10.80;99.90;;;;;;5121057;28;19927;-72
2022/04/07 08:15:20;;;;;;;;;;;10.80;99.90;;;;;;5120246;28;19928;-71
2022/04/07 08:17:48;;;;;;;;;;;10.80;99.90;;;;;;5120571;28;20223;-70
2022/04/07 08:20:15;;;;;;;;;;;10.90;99.90;;;;;;5120649;28;20115;-70
2022/04/07 08:22:41;;;;;;;;;;;10.90;99.90;;;;;;5120377;28;19936;-71
2022/04/07 08:25:08;;;;;;;;;;;11.00;99.90;;;;;;5122576;28;20294;-71
2022/04/07 08:27:35;;;;;;;;;;;10.90;99.90;;;;;;5124038;28;19973;-72
2022/04/07 08:30:02;;;;;;;;;;;10.90;99.90;;;;;;5123606;28;19928;-71
2022/04/07 08:32:31;;;;;;;;;;;10.90;99.90;;;;;;5123905;28;20226;-71
2022/04/07 08:34:59;;;;;;;;;;;10.90;99.90;;;;;;5124106;28;20150;-71
2022/04/07 08:37:26;;;;;;;;;;;10.80;99.90;;;;;;5123454;28;20215;-71
2022/04/07 08:39:53;;;;;;;;;;;10.80;99.90;;;;;;5123983;28;19920;-70
2022/04/07 08:42:20;;;;;;;;;;;10.80;99.90;;;;;;5124002;28;20115;-71
2022/04/07 08:44:47;;;;;;;;;;;10.80;99.90;;;;;;5123956;28;19955;-70
2022/04/07 08:47:13;;;;;;;;;;;10.80;99.90;;;;;;5123863;28;19927;-70
2022/04/07 08:49:40;;;;;;;;;;;10.80;99.90;;;;;;5124043;28;19935;-71
2022/04/07 08:52:10;;;;;;;;;;;10.90;99.90;;;;;;5122882;28;19935;-70
2022/04/07 08:54:37;;;;;;;;;;;10.90;99.90;;;;;;5123573;28;19927;-71
2022/04/07 08:57:04;;;;;;;;;;;11.00;99.90;;;;;;5123485;28;19927;-71
2022/04/07 08:59:30;;;;;;;;;;;11.00;99.90;;;;;;5123714;28;19927;-71
2022/04/07 09:02:00;;;;;;;;;;;11.10;99.90;;;;;;5123638;28;19928;-70
2022/04/07 09:04:29;;;;;;;;;;;11.10;99.90;;;;;;5123761;28;19950;-71
2022/04/07 09:06:56;;;;;;;;;;;11.20;99.90;;;;;;5123324;28;19927;-70
2022/04/07 09:09:24;;;;;;;;;;;11.10;99.90;;;;;;5123898;28;19931;-72
2022/04/07 09:11:53;;;;;;;;;;;11.20;99.90;;;;;;5123259;28;19934;-70
2022/04/07 09:14:31;;;;;;;;;;;11.20;99.90;;;;;;5122720;28;19928;-72
2022/04/07 09:16:57;;;;;;;;;;;11.30;99.90;;;;;;5123284;28;19932;-70
2022/04/07 09:19:24;;;;;;;;;;;11.30;99.90;;;;;;5123909;28;19923;-71
2022/04/07 09:22:04;;;;;;;;;;;11.30;99.90;;;;;;5123727;28;19923;-71
2022/04/07 09:24:33;;;;;;;;;;;11.40;99.90;;;;;;5123681;28;19928;-70
2022/04/07 09:27:00;;;;;;;;;;;11.50;99.90;;;;;;5123243;28;19919;-70
2022/04/07 09:29:36;;;;;;;;;;;11.60;99.90;;;;;;5123636;28;19928;-70
2022/04/07 09:32:03;;;;;;;;;;;11.60;99.90;;;;;;5123805;28;19919;-72
2022/04/07 09:34:31;;;;;;;;;;;11.70;99.90;;;;;;5123865;28;19927;-70
2022/04/07 09:37:04;;;;;;;;;;;11.70;99.90;;;;;;5123685;28;20017;-71
2022/04/07 09:39:36;;;;;;;;;;;11.80;99.90;;;;;;5122811;28;20425;-70
2022/04/07 09:42:17;;;;;;;;;;;11.90;99.90;;;;;;5122903;28;20277;-72
2022/04/07 09:44:44;;;;;;;;;;;12.00;99.90;;;;;;5122339;28;19931;-70
2022/04/07 09:47:12;;;;;;;;;;;12.10;99.90;;;;;;5122255;28;19928;-71
2022/04/07 09:49:38;;;;;;;;;;;12.20;99.90;;;;;;5123050;28;19986;-71
2022/04/07 09:52:05;;;;;;;;;;;12.20;99.90;;;;;;5122308;28;19947;-70
2022/04/07 09:54:35;;;;;;;;;;;12.20;99.90;;;;;;5122261;28;19936;-70
2022/04/07 09:57:03;;;;;;;;;;;12.10;99.90;;;;;;5121921;28;20223;-70
2022/04/07 09:59:30;;;;;;;;;;;12.10;99.90;;;;;;5121916;28;20138;-70
2022/04/07 10:01:57;;;;;;;;;;;12.00;99.90;;;;;;5122182;28;19920;-71
2022/04/07 10:04:23;;;;;;;;;;;11.90;99.90;;;;;;5121965;28;19934;-71
2022/04/07 10:06:50;;;;;;;;;;;11.80;99.90;;;;;;5122055;28;19928;-71
2022/04/07 10:09:18;;;;;;;;;;;11.70;99.90;;;;;;5121847;28;19941;-72
2022/04/07 10:11:46;;;;;;;;;;;11.60;99.90;;;;;;5122038;28;20023;-71
2022/04/07 10:14:16;;;;;;;;;;;11.40;99.90;;;;;;5121458;28;19934;-71
2022/04/07 10:16:42;;;;;;;;;;;11.40;99.90;;;;;;5121848;28;19927;-70
2022/04/07 10:19:12;;;;;;;;;;;11.30;99.90;;;;;;5121929;28;20315;-71
2022/04/07 10:21:44;;;;;;;;;;;11.30;99.90;;;;;;5123517;28;19920;-70
2022/04/07 10:24:17;;;;;;;;;;;11.20;99.90;;;;;;5123547;28;20146;-70
2022/04/07 10:26:46;;;;;;;;;;;11.30;99.90;;;;;;5115492;28;19920;-70
2022/04/07 10:29:19;;;;;;;;;;;11.40;99.90;;;;;;5124817;28;19926;-70
2022/04/07 10:32:01;;;;;;;;;;;11.50;99.90;;;;;;5124749;28;19920;-70
2022/04/07 10:34:31;;;;;;;;;;;11.50;99.90;;;;;;5124510;28;19920;-70
2022/04/07 10:37:02;;;;;;;;;;;11.60;99.90;;;;;;5124396;28;19919;-70
2022/04/07 10:39:32;;;;;;;;;;;11.70;99.90;;;;;;5124981;28;19924;-71
2022/04/07 10:42:00;;;;;;;;;;;11.80;99.90;;;;;;5125008;28;19920;-70
2022/04/07 10:44:27;;;;;;;;;;;11.90;99.90;;;;;;5124878;28;19927;-71
2022/04/07 10:47:01;;;;;;;;;;;12.00;99.90;;;;;;5123525;28;19926;-70
2022/04/07 10:49:29;;;;;;;;;;;12.00;99.90;;;;;;5124918;28;19920;-70
2022/04/07 10:51:56;;;;;;;;;;;12.10;99.90;;;;;;5124673;28;19920;-70
2022/04/07 10:54:24;;;;;;;;;;;12.10;99.90;;;;;;5124919;28;20118;-70
2022/04/07 10:56:51;;;;;;;;;;;12.00;99.90;;;;;;5124369;28;20255;-71
2022/04/07 10:59:23;;;;;;;;;;;12.00;99.90;;;;;;5124421;28;19923;-70
2022/04/07 11:01:52;;;;;;;;;;;11.90;99.90;;;;;;5124326;28;20203;-70
2022/04/07 11:04:44;;;;;;;;;;;11.90;99.90;;;;;;5124253;28;20234;-70
2022/04/07 11:07:16;;;;;;;;;;;11.80;99.90;;;;;;5104660;28;20133;-70
2022/04/07 11:09:43;;;;;;;;;;;11.80;99.90;;;;;;5124243;28;19919;-70
2022/04/07 11:12:10;;;;;;;;;;;11.80;99.90;;;;;;5124155;28;19927;-70
2022/04/07 11:14:40;;;;;;;;;;;11.70;99.90;;;;;;5123912;28;19920;-71
2022/04/07 11:17:07;;;;;;;;;;;11.80;99.90;;;;;;5124435;28;19935;-70
2022/04/07 11:19:39;;;;;;;;;;;11.70;99.90;;;;;;5124407;28;19926;-71
2022/04/07 11:22:09;;;;;;;;;;;11.70;99.90;;;;;;5124230;28;20226;-71
2022/04/07 11:24:42;;;;;;;;;;;11.70;99.90;;;;;;5124085;28;19920;-70
2022/04/07 11:27:24;;;;;;;;;;;11.70;99.90;;;;;;5123987;28;19927;-71
2022/04/07 11:30:03;;;;;;;;;;;11.70;99.90;;;;;;5123258;28;19978;-70
2022/04/07 11:32:30;;;;;;;;;;;11.80;99.90;;;;;;5124003;28;19920;-71
2022/04/07 11:34:58;;;;;;;;;;;11.90;99.90;;;;;;5124025;28;20298;-71
2022/04/07 11:37:26;;;;;;;;;;;11.90;99.90;;;;;;5123968;28;19919;-71
2022/04/07 11:39:54;;;;;;;;;;;11.90;99.90;;;;;;5123586;28;19926;-71
2022/04/07 11:42:21;;;;;;;;;;;12.00;99.90;;;;;;5124218;28;19942;-70
2022/04/07 11:44:48;;;;;;;;;;;12.10;99.90;;;;;;5124279;28;19919;-71
2022/04/07 11:47:22;;;;;;;;;;;12.20;99.90;;;;;;5123984;28;19923;-70
2022/04/07 11:49:49;;;;;;;;;;;12.30;99.90;;;;;;5123900;28;19977;-71
2022/04/07 11:52:16;;;;;;;;;;;12.30;99.90;;;;;;5124223;28;19927;-71
2022/04/07 11:54:43;;;;;;;;;;;12.40;99.90;;;;;;5124182;28;19987;-71
2022/04/07 11:57:10;;;;;;;;;;;12.40;99.90;;;;;;5123515;28;20126;-70
2022/04/07 11:59:37;;;;;;;;;;;12.40;99.90;;;;;;5127238;28;19920;-71
2022/04/07 12:02:04;;;;;;;;;;;12.60;99.90;;;;;;5127952;28;19919;-70
2022/04/07 12:04:34;;;;;;;;;;;12.70;99.90;;;;;;5127888;28;19920;-71
2022/04/07 12:07:01;;;;;;;;;;;12.80;99.90;;;;;;5127317;28;19920;-71
2022/04/07 12:09:27;;;;;;;;;;;13.00;99.90;;;;;;5127598;28;20234;-70
2022/04/07 12:11:54;;;;;;;;;;;13.10;99.90;;;;;;5127531;28;19919;-71
2022/04/07 12:14:28;;;;;;;;;;;13.30;99.90;;;;;;5126896;28;20103;-71
2022/04/07 12:16:54;;;;;;;;;;;13.40;99.90;;;;;;5127397;28;19920;-71
2022/04/07 12:19:21;;;;;;;;;;;13.50;99.90;;;;;;5127725;28;20123;-71
2022/04/07 12:21:53;;;;;;;;;;;13.50;99.90;;;;;;5127378;28;19919;-69
2022/04/07 12:24:20;;;;;;;;;;;13.40;99.90;;;;;;5127306;28;19919;-69
2022/04/07 12:26:48;;;;;;;;;;;13.30;99.90;;;;;;5127231;28;19926;-70
2022/04/07 12:29:15;;;;;;;;;;;13.20;99.90;;;;;;5127117;28;19926;-69
2022/04/07 12:31:41;;;;;;;;;;;13.10;99.90;;;;;;5110952;28;20216;-68
2022/04/07 12:34:09;;;;;;;;;;;13.10;99.90;;;;;;5106607;28;19924;-68
2022/04/07 12:36:37;;;;;;;;;;;13.20;99.90;;;;;;5106851;28;19920;-69
2022/04/07 12:39:08;;;;;;;;;;;13.20;99.90;;;;;;5104693;28;19920;-70
2022/04/07 12:41:36;;;;;;;;;;;13.20;99.90;;;;;;5107019;28;20003;-68
2022/04/07 12:44:02;;;;;;;;;;;13.40;99.90;;;;;;5109160;28;19920;-69
2022/04/07 12:46:43;;;;;;;;;;;13.50;99.90;;;;;;5127114;28;19927;-69
2022/04/07 12:49:09;;;;;;;;;;;13.50;99.90;;;;;;5127251;28;20234;-68
2022/04/07 12:51:37;;;;;;;;;;;13.60;99.90;;;;;;5126802;28;20229;-69
2022/04/07 12:54:09;;;;;;;;;;;13.50;99.90;;;;;;5126897;28;19927;-69
2022/04/07 12:56:36;;;;;;;;;;;13.50;99.90;;;;;;5126274;28;19926;-69
2022/04/07 12:59:03;;;;;;;;;;;13.50;99.90;;;;;;5126449;28;19958;-69
2022/04/07 13:01:30;;;;;;;;;;;13.50;99.90;;;;;;5126370;28;19926;-69
2022/04/07 13:03:57;;;;;;;;;;;13.50;99.90;;;;;;5126439;28;19919;-69
2022/04/07 13:06:24;;;;;;;;;;;13.40;99.90;;;;;;5126324;28;19951;-69
2022/04/07 13:08:50;;;;;;;;;;;13.40;99.90;;;;;;5126605;28;20259;-70
2022/04/07 13:11:32;;;;;;;;;;;13.50;99.90;;;;;;5125786;28;19920;-70
2022/04/07 13:14:05;;;;;;;;;;;13.60;99.90;;;;;;5125550;28;20366;-69
2022/04/07 13:16:32;;;;;;;;;;;13.60;99.90;;;;;;5126284;28;19923;-70
2022/04/07 13:18:59;;;;;;;;;;;13.70;99.90;;;;;;5126345;28;20115;-70
2022/04/07 13:21:26;;;;;;;;;;;13.70;99.90;;;;;;5125703;28;19920;-70
2022/04/07 13:23:53;;;;;;;;;;;13.80;99.90;;;;;;5100498;22;19924;-94
2022/04/07 13:26:20;;;;;;;;;;;13.70;99.90;;;;;;5087967;28;20099;-94
2022/04/07 13:28:51;;;;;;;;;;;13.70;99.90;;;;;;5093725;28;19913;-96
2022/04/07 13:31:18;;;;;;;;;;;13.70;99.90;;;;;;5086891;28;19944;-96
2022/04/07 13:33:45;;;;;;;;;;;13.70;99.90;;;;;;5094758;22;19920;-71
2022/04/07 13:36:12;;;;;;;;;;;13.70;99.90;;;;;;5084453;28;19920;-70
2022/04/07 13:38:38;;;;;;;;;;;13.80;99.90;;;;;;5082927;28;19920;-69
2022/04/07 13:41:05;;;;;;;;;;;13.80;99.90;;;;;;5084574;28;20123;-70
2022/04/07 13:43:32;;;;;;;;;;;13.90;99.90;;;;;;5084609;28;19920;-70
2022/04/07 13:46:00;;;;;;;;;;;13.90;99.90;;;;;;5083892;28;19921;-71
2022/04/07 13:48:27;;;;;;;;;;;13.90;99.90;;;;;;5083351;28;19983;-70
2022/04/07 13:50:54;;;;;;;;;;;13.90;99.90;;;;;;5085157;28;20151;-70
2022/04/07 13:53:20;;;;;;;;;;;13.90;99.90;;;;;;5084593;28;19920;-70
2022/04/07 13:55:47;;;;;;;;;;;13.80;99.90;;;;;;5084110;28;19927;-70
2022/04/07 13:58:14;;;;;;;;;;;13.80;99.90;;;;;;5084573;28;19927;-70
2022/04/07 14:00:41;;;;;;;;;;;13.80;99.90;;;;;;5084185;28;19927;-70
2022/04/07 14:03:09;;;;;;;;;;;13.80;99.90;;;;;;5084234;28;19920;-70
2022/04/07 14:05:36;;;;;;;;;;;13.70;99.90;;;;;;5084011;28;19921;-70
2022/04/07 14:08:03;;;;;;;;;;;13.60;99.90;;;;;;5084608;28;19942;-70
2022/04/07 14:10:30;;;;;;;;;;;13.50;99.90;;;;;;5084001;28;19920;-70
2022/04/07 14:12:57;;;;;;;;;;;13.30;99.90;;;;;;5080354;28;20123;-70
2022/04/07 14:15:24;;;;;;;;;;;13.20;99.90;;;;;;5081707;28;19921;-70
2022/04/07 14:17:50;;;;;;;;;;;13.20;99.90;;;;;;5083873;28;19950;-71
2022/04/07 14:20:18;;;;;;;;;;;13.10;99.90;;;;;;5083716;28;20123;-71
2022/04/07 14:22:45;;;;;;;;;;;13.10;99.90;;;;;;5083093;28;19959;-70
2022/04/07 14:25:12;;;;;;;;;;;13.10;99.90;;;;;;5075267;28;19920;-71
2022/04/07 14:27:39;;;;;;;;;;;13.10;99.90;;;;;;5063292;28;19975;-71